Time;durP1;ratioP1;P1;durP2;ratioP2;P2;SDS_P1;SDS_P2;PMS_P1;PMS_P2;Temp;Humidity;BMP_temperature;BMP_pressure;BME280_temperature;BME280_humidity;BME280_pressure;Samples;Min_cycle;Max_cycle;Signal;HPM_P1;HPM_P2
2021/06/09 00:01:05;;;;;;;4.90;3.15;;;;;;;;;;21007450;28;20103;-51
2021/06/09 00:11:07;;;;;;;4.60;3.33;;;;;;;;;;21006186;28;20049;-58
2021/06/09 00:21:09;;;;;;;7.20;3.88;;;;;;;;;;21005587;28;20079;-57
2021/06/09 00:31:11;;;;;;;6.63;4.80;;;;;;;;;;21006088;28;20102;-58
2021/06/09 00:41:13;;;;;;;22.67;20.25;;;;;;;;;;21003759;28;20416;-51
2021/06/09 00:51:17;;;;;;;4.95;4.07;;;;;;;;;;21003504;28;20522;-51
2021/06/09 01:01:20;;;;;;;3.67;3.17;;;;;;;;;;21002334;28;20049;-57
2021/06/09 01:11:23;;;;;;;5.72;3.95;;;;;;;;;;21001732;28;20056;-58
2021/06/09 01:21:28;;;;;;;5.45;4.68;;;;;;;;;;21001365;28;20053;-51
2021/06/09 01:31:30;;;;;;;7.07;4.75;;;;;;;;;;21000319;28;20048;-53
2021/06/09 01:41:31;;;;;;;;;;;;;;;;;;20999611;28;20045;-51
2021/06/09 01:51:33;;;;;;;7.00;4.20;;;;;;;;;;20999367;28;20394;-52
2021/06/09 02:01:35;;;;;;;5.38;3.95;;;;;;;;;;20997516;28;20052;-57
2021/06/09 02:11:40;;;;;;;4.65;4.03;;;;;;;;;;20996549;28;20044;-57
2021/06/09 02:21:43;;;;;;;5.57;3.80;;;;;;;;;;20996041;28;20056;-57
2021/06/09 02:31:49;;;;;;;5.93;3.92;;;;;;;;;;20977460;28;20052;-50
2021/06/09 02:41:51;;;;;;;6.18;4.20;;;;;;;;;;20994694;28;20060;-52
2021/06/09 02:52:00;;;;;;;5.95;4.00;;;;;;;;;;20994505;28;20064;-52
2021/06/09 03:02:11;;;;;;;8.23;4.35;;;;;;;;;;20993860;28;20455;-57
2021/06/09 03:12:24;;;;;;;7.55;4.40;;;;;;;;;;20993971;28;20052;-56
2021/06/09 03:22:47;;;;;;;4.60;3.95;;;;;;;;;;20994626;28;20048;-56
2021/06/09 03:33:01;;;;;;;5.28;3.88;;;;;;;;;;20993425;28;20071;-60
2021/06/09 03:43:04;;;;;;;6.68;4.30;;;;;;;;;;20974933;28;20049;-52
2021/06/09 03:53:06;;;;;;;6.60;4.75;;;;;;;;;;20956854;28;20044;-52
2021/06/09 04:03:08;;;;;;;;;;;;;;;;;;20992115;28;20056;-51
2021/06/09 04:13:10;;;;;;;5.30;3.45;;;;;;;;;;21000781;28;20288;-51
2021/06/09 04:23:12;;;;;;;4.93;3.70;;;;;;;;;;21005582;28;20055;-52
2021/06/09 04:33:13;;;;;;;6.93;3.50;;;;;;;;;;21004686;28;20052;-53
2021/06/09 04:43:15;;;;;;;5.87;3.77;;;;;;;;;;21004388;28;20078;-54
2021/06/09 04:53:17;;;;;;;4.37;3.50;;;;;;;;;;21003352;28;20056;-53
2021/06/09 05:03:19;;;;;;;4.13;3.00;;;;;;;;;;21003276;28;20511;-52
2021/06/09 05:13:24;;;;;;;5.57;3.30;;;;;;;;;;21002839;28;20087;-51
2021/06/09 05:23:32;;;;;;;5.10;3.40;;;;;;;;;;20982661;28;20068;-52
2021/06/09 05:33:35;;;;;;;7.10;3.80;;;;;;;;;;21000148;28;20090;-52
2021/06/09 05:43:39;;;;;;;6.82;4.35;;;;;;;;;;20999701;28;20083;-52
2021/06/09 05:53:41;;;;;;;5.22;3.42;;;;;;;;;;20998997;28;20106;-51
2021/06/09 06:03:44;;;;;;;7.73;4.23;;;;;;;;;;20997594;28;20052;-51
2021/06/09 06:13:47;;;;;;;5.95;3.75;;;;;;;;;;20997545;28;20044;-52
2021/06/09 06:23:49;;;;;;;7.20;3.77;;;;;;;;;;20996286;28;20405;-51
2021/06/09 06:33:52;;;;;;;7.70;3.67;;;;;;;;;;20994908;28;20059;-53
2021/06/09 06:43:55;;;;;;;9.55;4.40;;;;;;;;;;20995995;28;20049;-51
2021/06/09 06:53:57;;;;;;;11.05;4.50;;;;;;;;;;20975757;28;20512;-53
2021/06/09 07:04:00;;;;;;;12.50;4.10;;;24.70;37.60;;;;;;20994049;28;20045;-52
2021/06/09 07:14:02;;;;;;;12.68;4.43;;;24.20;38.70;;;;;;20993867;28;20044;-59
2021/06/09 07:24:04;;;;;;;7.77;4.17;;;24.80;38.40;;;;;;20976449;28;20052;-53
2021/06/09 07:34:06;;;;;;;7.78;4.35;;;26.60;35.90;;;;;;20993179;28;20412;-56
2021/06/09 07:44:09;;;;;;;7.95;4.15;;;26.30;37.00;;;;;;20999039;28;20151;-53
2021/06/09 07:54:12;;;;;;;15.30;5.15;;;;;;;;;;21008772;28;20057;-52
2021/06/09 08:04:13;;;;;;;5.88;3.83;;;;;;;;;;21007977;28;20420;-52
2021/06/09 08:14:15;;;;;;;7.95;3.97;;;29.10;34.70;;;;;;21007111;28;20049;-52
2021/06/09 08:24:17;;;;;;;6.43;4.47;;;28.50;35.40;;;;;;20989439;28;20044;-52
2021/06/09 08:34:18;;;;;;;5.55;3.95;;;28.50;35.50;;;;;;21005293;28;20063;-53
2021/06/09 08:44:21;;;;;;;10.02;4.68;;;29.50;33.90;;;;;;21005426;28;20048;-52
2021/06/09 08:54:24;;;;;;;6.45;4.10;;;29.40;33.50;;;;;;21003921;28;20048;-53
2021/06/09 09:04:27;;;;;;;18.10;9.23;;;30.50;31.80;;;;;;21003505;28;20049;-54
2021/06/09 09:14:28;;;;;;;9.88;3.95;;;30.40;31.50;;;;;;21002372;28;20079;-52
2021/06/09 09:24:47;;;;;;;7.25;3.97;;;30.20;31.50;;;;;;21000905;28;20048;-58
2021/06/09 09:34:48;;;;;;;11.80;3.92;;;30.60;30.80;;;;;;20998984;28;20155;-53
2021/06/09 09:44:50;;;;;;;10.43;3.50;;;31.20;30.30;;;;;;20999007;28;20104;-53
2021/06/09 09:54:59;;;;;;;5.80;3.05;;;32.20;27.00;;;;;;20998040;28;20052;-53
2021/06/09 10:05:12;;;;;;;5.87;2.77;;;31.50;25.70;;;;;;20997670;28;20067;-53
2021/06/09 10:15:36;;;;;;;4.57;3.15;;;31.40;25.70;;;;;;20996315;28;20063;-53
2021/06/09 10:25:37;;;;;;;4.35;2.97;;;31.30;24.80;;;;;;20996760;28;20063;-54
2021/06/09 10:35:38;;;;;;;3.58;2.72;;;31.50;25.70;;;;;;20994605;28;20052;-54
2021/06/09 10:45:41;;;;;;;8.02;3.53;;;31.70;24.40;;;;;;20994107;28;20057;-52
2021/06/09 10:55:43;;;;;;;6.13;3.42;;;31.80;24.60;;;;;;20994548;28;20114;-56
2021/06/09 11:05:45;;;;;;;6.32;3.33;;;31.80;24.90;;;;;;20994022;28;20055;-55
2021/06/09 11:15:46;;;;;;;10.65;3.65;;;32.10;24.70;;;;;;20994753;28;20057;-55
2021/06/09 11:25:48;;;;;;;6.22;3.88;;;32.40;23.50;;;;;;21010852;28;20044;-55
2021/06/09 11:35:51;;;;;;;4.32;3.08;;;32.30;22.50;;;;;;20991466;28;20142;-55
2021/06/09 11:46:00;;;;;;;7.38;3.08;;;32.60;22.30;;;;;;21007345;28;20048;-55
2021/06/09 11:56:20;;;;;;;5.53;3.60;;;33.00;21.80;;;;;;21007849;28;20049;-54
2021/06/09 12:06:22;;;;;;;5.43;2.90;;;33.30;20.90;;;;;;21007758;28;20048;-53
2021/06/09 12:16:26;;;;;;;3.95;2.60;;;33.30;20.40;;;;;;21007445;28;20402;-54
2021/06/09 12:26:27;;;;;;;7.05;3.17;;;33.40;20.10;;;;;;21006786;28;20412;-58
2021/06/09 12:36:29;;;;;;;4.38;2.63;;;33.40;20.30;;;;;;21004119;28;20135;-53
2021/06/09 12:46:30;;;;;;;3.78;2.80;;;33.50;19.90;;;;;;20986745;28;20080;-56
2021/06/09 12:56:31;;;;;;;5.40;2.55;;;33.70;19.50;;;;;;21004103;28;20053;-53
2021/06/09 13:06:32;;;;;;;5.05;2.60;;;33.60;19.40;;;;;;20984042;28;20079;-54
2021/06/09 13:16:35;;;;;;;4.22;2.90;;;;;;;;;;20983251;28;20135;-53
2021/06/09 13:26:37;;;;;;;4.68;2.58;;;;;;;;;;21001333;28;20505;-59
2021/06/09 13:36:39;;;;;;;4.10;2.67;;;;;;;;;;21000305;28;20088;-53
2021/06/09 13:46:42;;;;;;;3.30;2.38;;;;;;;;;;21000509;28;20393;-57
2021/06/09 13:56:44;;;;;;;3.25;2.30;;;;;;;;;;20998267;28;20109;-60
2021/06/09 14:06:59;;;;;;;5.13;2.53;;;;;;;;;;20997519;28;20044;-51
2021/06/09 14:17:04;;;;;;;4.38;2.63;;;;;;;;;;20998635;28;20489;-53
2021/06/09 14:27:06;;;;;;;4.60;2.30;;;;;;;;;;20996484;28;20071;-53
2021/06/09 14:37:18;;;;;;;4.65;2.42;;;;;;;;;;20996969;28;20094;-54
2021/06/09 14:47:33;;;;;;;5.50;2.20;;;;;;;;;;20996523;28;20044;-55
2021/06/09 14:57:35;;;;;;;4.30;1.92;;;35.40;15.90;;;;;;20976799;28;20056;-54
2021/06/09 15:07:37;;;;;;;4.97;2.50;;;34.30;16.70;;;;;;20994945;28;20127;-54
2021/06/09 15:17:38;;;;;;;4.75;1.83;;;34.40;16.70;;;;;;20996412;28;20075;-53
2021/06/09 15:27:39;;;;;;;4.32;2.20;;;34.20;16.40;;;;;;20994622;28;20117;-54
2021/06/09 15:37:41;;;;;;;4.05;1.58;;;34.30;15.70;;;;;;20909410;28;20085;-55
2021/06/09 15:47:42;;;;;;;2.83;1.67;;;34.40;15.10;;;;;;20910777;28;20053;-54
2021/06/09 15:57:44;;;;;;;2.85;1.83;;;34.40;14.80;;;;;;20909973;28;20056;-53
2021/06/09 16:07:45;;;;;;;2.85;1.45;;;34.30;15.90;;;;;;20918530;28;20068;-57
2021/06/09 16:17:46;;;;;;;5.25;2.40;;;34.30;16.00;;;;;;20922000;28;20060;-54
2021/06/09 16:27:48;;;;;;;2.72;2.13;;;34.20;16.70;;;;;;20923986;28;20119;-53
2021/06/09 16:37:49;;;;;;;4.15;1.90;;;34.20;17.10;;;;;;20991460;28;20488;-53
2021/06/09 16:47:51;;;;;;;3.88;1.98;;;34.10;17.30;;;;;;20986253;28;20098;-52
2021/06/09 17:08:15;;;;;;;5.13;2.20;;;34.00;17.20;;;;;;21002346;28;20506;-57
2021/06/09 17:18:17;;;;;;;4.28;2.90;;;33.90;17.60;;;;;;21000161;28;20080;-52
2021/06/09 17:28:19;;;;;;;6.60;3.75;;;33.80;17.70;;;;;;20999605;28;20049;-52
2021/06/09 17:38:21;;;;;;;3.13;2.30;;;33.60;17.90;;;;;;20998315;28;20143;-53
2021/06/09 17:48:23;;;;;;;16.92;12.70;;;33.60;18.10;;;;;;20996915;28;20083;-54
2021/06/09 17:58:26;;;;;;;3.00;2.03;;;33.50;18.20;;;;;;20995526;28;20099;-53
2021/06/09 18:08:28;;;;;;;4.75;2.30;;;33.50;18.40;;;;;;20996583;28;20481;-53
2021/06/09 18:18:29;;;;;;;6.65;4.25;;;33.30;18.40;;;;;;20997066;28;20467;-53
2021/06/09 18:28:31;;;;;;;2.70;2.20;;;33.10;18.50;;;;;;20995516;28;20041;-52
2021/06/09 18:38:33;;;;;;;5.45;2.50;;;33.00;18.40;;;;;;20976938;28;20512;-56
2021/06/09 18:48:34;;;;;;;4.10;2.30;;;32.80;18.40;;;;;;20995405;28;20051;-54
2021/06/09 18:58:37;;;;;;;3.63;2.83;;;32.70;18.40;;;;;;20995337;28;20051;-53
2021/06/09 19:08:40;;;;;;;3.03;2.30;;;32.50;18.40;;;;;;20994008;28;20053;-51
2021/06/09 19:18:42;;;;;;;2.85;2.05;;;32.30;18.70;;;;;;20994371;28;20063;-52
2021/06/09 19:28:43;;;;;;;5.63;2.47;;;32.10;18.60;;;;;;20994801;28;20496;-56
2021/06/09 19:38:45;;;;;;;3.80;2.25;;;31.90;18.50;;;;;;20977912;28;20060;-59
2021/06/09 19:48:46;;;;;;;5.68;2.40;;;31.60;18.80;;;;;;21008658;28;20400;-59
2021/06/09 19:58:48;;;;;;;5.95;2.92;;;31.40;18.70;;;;;;21007752;28;20052;-58
2021/06/09 20:08:50;;;;;;;3.33;2.33;;;31.20;19.10;;;;;;21006695;28;20053;-54
2021/06/09 20:18:51;;;;;;;4.68;2.70;;;31.10;19.00;;;;;;20988524;28;20048;-53
2021/06/09 20:28:53;;;;;;;4.50;3.35;;;30.90;19.10;;;;;;21004898;28;20056;-53
2021/06/09 20:38:54;;;;;;;4.82;3.22;;;30.60;19.20;;;;;;21004919;28;20465;-54
2021/06/09 20:48:56;;;;;;;5.80;2.95;;;30.60;19.30;;;;;;21004069;28;20063;-53
2021/06/09 20:58:57;;;;;;;3.55;2.45;;;30.30;19.70;;;;;;21004164;28;20060;-53
2021/06/09 21:09:00;;;;;;;4.65;2.80;;;30.00;20.70;;;;;;21002133;28;20045;-59
2021/06/09 21:19:02;;;;;;;4.63;3.40;;;29.80;20.90;;;;;;21001904;28;20048;-61
2021/06/09 21:29:07;;;;;;;6.78;3.60;;;29.60;21.40;;;;;;21002172;28;20105;-52
2021/06/09 21:39:09;;;;;;;4.70;3.20;;;29.30;21.80;;;;;;21000192;28;20386;-52
2021/06/09 21:49:10;;;;;;;8.27;5.72;;;29.20;22.10;;;;;;20999330;28;20049;-53
2021/06/09 21:59:12;;;;;;;5.40;4.68;;;29.10;22.80;;;;;;20999077;28;20408;-52
2021/06/09 22:09:13;;;;;;;8.25;4.22;;;28.80;23.20;;;;;;20997544;28;20038;-59
2021/06/09 22:19:14;;;;;;;9.00;3.40;;;28.60;23.60;;;;;;20997986;28;20481;-53
2021/06/09 22:29:16;;;;;;;6.55;3.63;;;28.40;24.30;;;;;;20997076;28;20048;-54
2021/06/09 22:39:17;;;;;;;4.97;3.38;;;28.20;24.60;;;;;;20996305;28;20443;-53
2021/06/09 22:49:18;;;;;;;7.82;4.35;;;28.20;25.70;;;;;;20996177;28;20044;-53
2021/06/09 22:59:21;;;;;;;4.82;3.42;;;28.10;26.60;;;;;;20995403;28;20113;-51
2021/06/09 23:09:22;;;;;;;4.03;3.03;;;27.90;26.90;;;;;;20995839;28;20489;-52
2021/06/09 23:19:24;;;;;;;6.20;3.20;;;27.80;28.20;;;;;;21008672;28;20071;-52
2021/06/09 23:29:25;;;;;;;5.13;3.53;;;27.80;28.90;;;;;;21011547;28;20048;-52
2021/06/09 23:39:26;;;;;;;3.92;3.17;;;28.40;29.20;;;;;;21010381;28;20084;-53
2021/06/09 23:49:37;;;;;;;6.07;3.28;;;;;;;;;;21009464;28;20049;-51
2021/06/09 23:59:39;;;;;;;3.95;2.92;;;;;;;;;;21008252;28;20059;-53
